sensor_id;sensor_type;location;lat;lon;timestamp;pressure;altitude;pressure_sealevel;temperature;humidity
77410;BME280;66481;51.332;22.804;2024-03-22T00:03:47;99743.69;;;4.42;100.00
77410;BME280;66481;51.332;22.804;2024-03-22T00:07:48;99734.19;;;4.39;100.00
77410;BME280;66481;51.332;22.804;2024-03-22T00:11:50;99719.34;;;4.40;100.00
77410;BME280;66481;51.332;22.804;2024-03-22T00:15:51;99712.03;;;4.46;100.00
77410;BME280;66481;51.332;22.804;2024-03-22T00:19:52;99704.97;;;4.48;100.00
77410;BME280;66481;51.332;22.804;2024-03-22T00:23:53;99684.91;;;4.47;100.00
77410;BME280;66481;51.332;22.804;2024-03-22T00:27:55;99685.53;;;4.52;100.00
77410;BME280;66481;51.332;22.804;2024-03-22T00:31:56;99681.06;;;4.55;100.00
77410;BME280;66481;51.332;22.804;2024-03-22T00:35:57;99686.22;;;4.56;100.00
77410;BME280;66481;51.332;22.804;2024-03-22T00:39:58;99669.88;;;4.51;100.00
77410;BME280;66481;51.332;22.804;2024-03-22T00:43:59;99663.66;;;4.54;100.00
77410;BME280;66481;51.332;22.804;2024-03-22T00:48:02;99657.72;;;4.50;100.00
77410;BME280;66481;51.332;22.804;2024-03-22T00:52:03;99663.94;;;4.47;100.00
77410;BME280;66481;51.332;22.804;2024-03-22T00:56:05;99672.56;;;4.49;100.00
77410;BME280;66481;51.332;22.804;2024-03-22T01:00:06;99671.66;;;4.50;100.00
77410;BME280;66481;51.332;22.804;2024-03-22T01:04:08;99682.78;;;4.56;100.00
77410;BME280;66481;51.332;22.804;2024-03-22T01:08:12;99684.44;;;4.57;100.00
77410;BME280;66481;51.332;22.804;2024-03-22T01:12:13;99670.09;;;4.46;100.00
77410;BME280;66481;51.332;22.804;2024-03-22T01:16:14;99679.03;;;4.42;100.00
77410;BME280;66481;51.332;22.804;2024-03-22T01:20:17;99671.13;;;4.44;100.00
77410;BME280;66481;51.332;22.804;2024-03-22T01:24:18;99661.72;;;4.40;100.00
77410;BME280;66481;51.332;22.804;2024-03-22T01:28:19;99672.03;;;4.43;100.00
77410;BME280;66481;51.332;22.804;2024-03-22T01:32:22;99657.25;;;4.42;100.00
77410;BME280;66481;51.332;22.804;2024-03-22T01:36:23;99665.03;;;4.43;100.00
77410;BME280;66481;51.332;22.804;2024-03-22T01:40:26;99665.47;;;4.51;100.00
77410;BME280;66481;51.332;22.804;2024-03-22T01:44:28;99680.91;;;4.58;100.00
77410;BME280;66481;51.332;22.804;2024-03-22T01:48:29;99678.63;;;4.69;100.00
77410;BME280;66481;51.332;22.804;2024-03-22T01:52:34;99670.75;;;4.69;100.00
77410;BME280;66481;51.332;22.804;2024-03-22T01:56:39;99672.44;;;4.70;100.00
77410;BME280;66481;51.332;22.804;2024-03-22T02:00:40;99673.81;;;4.77;100.00
77410;BME280;66481;51.332;22.804;2024-03-22T02:04:41;99664.91;;;4.81;100.00
77410;BME280;66481;51.332;22.804;2024-03-22T02:08:42;99650.94;;;4.63;100.00
77410;BME280;66481;51.332;22.804;2024-03-22T02:12:45;99645.59;;;4.47;100.00
77410;BME280;66481;51.332;22.804;2024-03-22T02:16:46;99628.38;;;4.43;100.00
77410;BME280;66481;51.332;22.804;2024-03-22T02:20:47;99634.38;;;4.45;100.00
77410;BME280;66481;51.332;22.804;2024-03-22T02:24:48;99636.91;;;4.47;100.00
77410;BME280;66481;51.332;22.804;2024-03-22T02:28:49;99636.59;;;4.53;100.00
77410;BME280;66481;51.332;22.804;2024-03-22T02:32:50;99628.66;;;4.55;100.00
77410;BME280;66481;51.332;22.804;2024-03-22T02:36:51;99618.19;;;4.55;100.00
77410;BME280;66481;51.332;22.804;2024-03-22T02:40:52;99601.91;;;4.48;100.00
77410;BME280;66481;51.332;22.804;2024-03-22T02:44:54;99607.16;;;4.48;100.00
77410;BME280;66481;51.332;22.804;2024-03-22T02:48:55;99607.06;;;4.49;100.00
77410;BME280;66481;51.332;22.804;2024-03-22T02:52:59;99611.41;;;4.50;100.00
77410;BME280;66481;51.332;22.804;2024-03-22T02:56:59;99607.22;;;4.46;100.00
77410;BME280;66481;51.332;22.804;2024-03-22T03:01:02;99605.69;;;4.42;100.00
77410;BME280;66481;51.332;22.804;2024-03-22T03:05:04;99612.31;;;4.49;100.00
77410;BME280;66481;51.332;22.804;2024-03-22T03:09:06;99603.69;;;4.47;100.00
77410;BME280;66481;51.332;22.804;2024-03-22T03:13:14;99589.06;;;4.43;100.00
77410;BME280;66481;51.332;22.804;2024-03-22T03:17:15;99586.59;;;4.40;100.00
77410;BME280;66481;51.332;22.804;2024-03-22T03:21:16;99593.69;;;4.38;100.00
77410;BME280;66481;51.332;22.804;2024-03-22T03:25:17;99606.53;;;4.43;100.00
77410;BME280;66481;51.332;22.804;2024-03-22T03:29:19;99599.63;;;4.42;100.00
77410;BME280;66481;51.332;22.804;2024-03-22T03:33:20;99595.06;;;4.45;100.00
77410;BME280;66481;51.332;22.804;2024-03-22T03:37:22;99601.75;;;4.51;100.00
77410;BME280;66481;51.332;22.804;2024-03-22T03:41:23;99602.38;;;4.56;100.00
77410;BME280;66481;51.332;22.804;2024-03-22T03:45:24;99594.75;;;4.51;100.00
77410;BME280;66481;51.332;22.804;2024-03-22T03:49:26;99600.38;;;4.61;100.00
77410;BME280;66481;51.332;22.804;2024-03-22T03:53:27;99593.44;;;4.60;100.00
77410;BME280;66481;51.332;22.804;2024-03-22T03:57:28;99577.88;;;4.57;100.00
77410;BME280;66481;51.332;22.804;2024-03-22T04:01:29;99563.06;;;4.56;100.00
77410;BME280;66481;51.332;22.804;2024-03-22T04:05:30;99575.34;;;4.56;100.00
77410;BME280;66481;51.332;22.804;2024-03-22T04:09:31;99566.09;;;4.48;100.00
77410;BME280;66481;51.332;22.804;2024-03-22T04:13:32;99573.09;;;4.48;100.00
77410;BME280;66481;51.332;22.804;2024-03-22T04:17:34;99585.97;;;4.52;100.00
77410;BME280;66481;51.332;22.804;2024-03-22T04:21:35;99592.81;;;4.73;100.00
77410;BME280;66481;51.332;22.804;2024-03-22T04:25:36;99593.03;;;4.85;100.00
77410;BME280;66481;51.332;22.804;2024-03-22T04:29:37;99582.69;;;4.82;100.00
77410;BME280;66481;51.332;22.804;2024-03-22T04:33:38;99577.78;;;4.76;100.00
77410;BME280;66481;51.332;22.804;2024-03-22T04:37:39;99582.94;;;4.78;100.00
77410;BME280;66481;51.332;22.804;2024-03-22T04:41:40;99588.00;;;4.81;100.00
77410;BME280;66481;51.332;22.804;2024-03-22T04:45:45;99586.31;;;4.80;100.00
77410;BME280;66481;51.332;22.804;2024-03-22T04:49:47;99583.44;;;4.84;100.00
77410;BME280;66481;51.332;22.804;2024-03-22T04:53:48;99597.28;;;4.88;100.00
77410;BME280;66481;51.332;22.804;2024-03-22T04:57:49;99599.09;;;4.86;100.00
77410;BME280;66481;51.332;22.804;2024-03-22T05:01:50;99601.03;;;4.82;100.00
77410;BME280;66481;51.332;22.804;2024-03-22T05:05:51;99601.03;;;4.82;100.00
77410;BME280;66481;51.332;22.804;2024-03-22T05:09:53;99604.34;;;4.86;100.00
77410;BME280;66481;51.332;22.804;2024-03-22T05:13:54;99609.84;;;4.81;100.00
77410;BME280;66481;51.332;22.804;2024-03-22T05:17:57;99609.50;;;4.87;100.00
77410;BME280;66481;51.332;22.804;2024-03-22T05:21:58;99614.28;;;4.97;100.00
77410;BME280;66481;51.332;22.804;2024-03-22T05:26:00;99612.97;;;5.05;100.00
77410;BME280;66481;51.332;22.804;2024-03-22T05:30:02;99614.34;;;5.13;100.00
77410;BME280;66481;51.332;22.804;2024-03-22T05:34:05;99613.38;;;5.14;100.00
77410;BME280;66481;51.332;22.804;2024-03-22T05:38:06;99630.94;;;5.29;100.00
77410;BME280;66481;51.332;22.804;2024-03-22T05:42:07;99633.25;;;5.51;100.00
77410;BME280;66481;51.332;22.804;2024-03-22T05:46:08;99629.53;;;5.55;100.00
77410;BME280;66481;51.332;22.804;2024-03-22T05:50:09;99638.50;;;5.83;100.00
77410;BME280;66481;51.332;22.804;2024-03-22T05:54:11;99639.31;;;6.01;100.00
77410;BME280;66481;51.332;22.804;2024-03-22T05:58:13;99634.13;;;6.15;100.00
77410;BME280;66481;51.332;22.804;2024-03-22T06:02:15;99633.25;;;6.31;100.00
77410;BME280;66481;51.332;22.804;2024-03-22T06:06:19;99627.69;;;6.51;100.00
77410;BME280;66481;51.332;22.804;2024-03-22T06:10:23;99618.88;;;6.52;100.00
77410;BME280;66481;51.332;22.804;2024-03-22T06:14:24;99616.84;;;6.57;100.00
77410;BME280;66481;51.332;22.804;2024-03-22T06:18:26;99609.88;;;6.56;100.00
77410;BME280;66481;51.332;22.804;2024-03-22T06:22:26;99618.41;;;6.60;100.00
77410;BME280;66481;51.332;22.804;2024-03-22T06:26:28;99610.06;;;6.68;100.00
77410;BME280;66481;51.332;22.804;2024-03-22T06:30:31;99615.63;;;6.77;100.00
77410;BME280;66481;51.332;22.804;2024-03-22T06:34:32;99614.50;;;6.82;100.00
77410;BME280;66481;51.332;22.804;2024-03-22T06:38:33;99617.63;;;6.88;100.00
77410;BME280;66481;51.332;22.804;2024-03-22T06:42:38;99617.16;;;6.96;100.00
77410;BME280;66481;51.332;22.804;2024-03-22T06:46:40;99613.66;;;6.95;100.00
77410;BME280;66481;51.332;22.804;2024-03-22T06:50:41;99614.25;;;7.01;100.00
77410;BME280;66481;51.332;22.804;2024-03-22T06:54:43;99613.97;;;7.05;100.00
77410;BME280;66481;51.332;22.804;2024-03-22T06:58:44;99609.09;;;7.13;100.00
77410;BME280;66481;51.332;22.804;2024-03-22T07:02:46;99619.91;;;7.23;100.00
77410;BME280;66481;51.332;22.804;2024-03-22T07:06:49;99615.28;;;7.41;100.00
77410;BME280;66481;51.332;22.804;2024-03-22T07:10:51;99612.72;;;7.54;100.00
77410;BME280;66481;51.332;22.804;2024-03-22T07:14:55;99606.44;;;7.57;100.00
77410;BME280;66481;51.332;22.804;2024-03-22T07:18:57;99610.00;;;7.70;100.00
77410;BME280;66481;51.332;22.804;2024-03-22T07:22:59;99594.59;;;7.77;100.00
77410;BME280;66481;51.332;22.804;2024-03-22T07:27:01;99597.31;;;7.89;100.00
77410;BME280;66481;51.332;22.804;2024-03-22T07:31:03;99579.66;;;7.77;100.00
77410;BME280;66481;51.332;22.804;2024-03-22T07:35:04;99574.59;;;7.74;100.00
77410;BME280;66481;51.332;22.804;2024-03-22T07:39:06;99583.94;;;7.65;100.00
77410;BME280;66481;51.332;22.804;2024-03-22T07:43:08;99590.41;;;7.74;100.00
77410;BME280;66481;51.332;22.804;2024-03-22T07:47:09;99581.75;;;7.72;100.00
77410;BME280;66481;51.332;22.804;2024-03-22T07:51:11;99588.06;;;7.69;100.00
77410;BME280;66481;51.332;22.804;2024-03-22T07:55:12;99582.59;;;7.72;100.00
77410;BME280;66481;51.332;22.804;2024-03-22T07:59:14;99587.94;;;7.71;100.00
77410;BME280;66481;51.332;22.804;2024-03-22T08:03:16;99600.34;;;7.83;100.00
77410;BME280;66481;51.332;22.804;2024-03-22T08:07:17;99590.31;;;7.76;100.00
77410;BME280;66481;51.332;22.804;2024-03-22T08:11:18;99600.19;;;7.99;100.00
77410;BME280;66481;51.332;22.804;2024-03-22T08:15:20;99588.31;;;8.06;100.00
77410;BME280;66481;51.332;22.804;2024-03-22T08:19:21;99587.16;;;8.10;100.00
77410;BME280;66481;51.332;22.804;2024-03-22T08:23:26;99594.88;;;8.14;100.00
77410;BME280;66481;51.332;22.804;2024-03-22T08:27:27;99589.91;;;8.09;100.00
77410;BME280;66481;51.332;22.804;2024-03-22T08:31:29;99578.56;;;7.94;100.00
77410;BME280;66481;51.332;22.804;2024-03-22T08:35:30;99585.94;;;7.89;100.00
77410;BME280;66481;51.332;22.804;2024-03-22T08:39:31;99585.59;;;7.81;100.00
77410;BME280;66481;51.332;22.804;2024-03-22T08:43:36;99591.59;;;7.83;100.00
77410;BME280;66481;51.332;22.804;2024-03-22T08:47:39;99594.59;;;7.77;100.00
77410;BME280;66481;51.332;22.804;2024-03-22T08:51:43;99600.28;;;7.70;100.00
77410;BME280;66481;51.332;22.804;2024-03-22T08:55:48;99606.56;;;7.68;100.00
77410;BME280;66481;51.332;22.804;2024-03-22T08:59:51;99610.31;;;7.78;100.00
77410;BME280;66481;51.332;22.804;2024-03-22T09:03:52;99621.22;;;7.86;100.00
77410;BME280;66481;51.332;22.804;2024-03-22T09:07:53;99629.47;;;7.95;100.00
77410;BME280;66481;51.332;22.804;2024-03-22T09:11:56;99627.94;;;8.05;100.00
77410;BME280;66481;51.332;22.804;2024-03-22T09:15:58;99625.00;;;8.09;100.00
77410;BME280;66481;51.332;22.804;2024-03-22T09:20:01;99627.34;;;8.14;100.00
77410;BME280;66481;51.332;22.804;2024-03-22T09:24:04;99609.72;;;8.15;100.00
77410;BME280;66481;51.332;22.804;2024-03-22T09:28:06;99614.59;;;8.21;100.00
77410;BME280;66481;51.332;22.804;2024-03-22T09:32:07;99618.81;;;8.23;100.00
77410;BME280;66481;51.332;22.804;2024-03-22T09:36:08;99612.72;;;8.23;100.00
77410;BME280;66481;51.332;22.804;2024-03-22T09:40:11;99616.19;;;8.23;100.00
77410;BME280;66481;51.332;22.804;2024-03-22T09:44:13;99623.81;;;8.28;100.00
77410;BME280;66481;51.332;22.804;2024-03-22T09:48:19;99626.53;;;8.26;100.00
77410;BME280;66481;51.332;22.804;2024-03-22T09:52:22;99618.44;;;8.29;100.00
77410;BME280;66481;51.332;22.804;2024-03-22T09:56:24;99622.16;;;8.40;100.00
77410;BME280;66481;51.332;22.804;2024-03-22T10:00:29;99625.72;;;8.53;100.00
77410;BME280;66481;51.332;22.804;2024-03-22T10:04:34;99616.63;;;8.57;100.00
77410;BME280;66481;51.332;22.804;2024-03-22T10:08:38;99610.41;;;8.58;100.00
77410;BME280;66481;51.332;22.804;2024-03-22T10:12:39;99619.72;;;8.64;100.00
77410;BME280;66481;51.332;22.804;2024-03-22T10:16:40;99618.44;;;8.57;100.00
77410;BME280;66481;51.332;22.804;2024-03-22T10:20:42;99610.72;;;8.54;100.00
77410;BME280;66481;51.332;22.804;2024-03-22T10:24:45;99625.31;;;8.85;100.00
77410;BME280;66481;51.332;22.804;2024-03-22T10:28:47;99629.56;;;9.00;100.00
77410;BME280;66481;51.332;22.804;2024-03-22T10:32:49;99640.25;;;9.62;100.00
77410;BME280;66481;51.332;22.804;2024-03-22T10:36:51;99630.75;;;10.33;100.00
77410;BME280;66481;51.332;22.804;2024-03-22T10:40:53;99624.59;;;11.15;100.00
77410;BME280;66481;51.332;22.804;2024-03-22T10:44:55;99597.13;;;11.50;100.00
77410;BME280;66481;51.332;22.804;2024-03-22T10:48:57;99595.72;;;11.89;99.10
77410;BME280;66481;51.332;22.804;2024-03-22T10:53:02;99580.25;;;12.38;95.44
77410;BME280;66481;51.332;22.804;2024-03-22T10:57:06;99554.66;;;12.48;93.98
77410;BME280;66481;51.332;22.804;2024-03-22T11:01:22;99521.06;;;12.16;90.45
77410;BME280;66481;51.332;22.804;2024-03-22T11:05:25;99497.06;;;11.74;91.42
77410;BME280;66481;51.332;22.804;2024-03-22T11:09:27;99488.06;;;11.65;90.75
77410;BME280;66481;51.332;22.804;2024-03-22T11:13:36;99470.81;;;11.27;90.46
77410;BME280;66481;51.332;22.804;2024-03-22T11:17:37;99448.38;;;10.99;90.41
77410;BME280;66481;51.332;22.804;2024-03-22T11:21:39;99438.88;;;10.74;90.85
77410;BME280;66481;51.332;22.804;2024-03-22T11:25:40;99431.19;;;10.48;91.62
77410;BME280;66481;51.332;22.804;2024-03-22T11:29:41;99427.88;;;10.11;92.65
77410;BME280;66481;51.332;22.804;2024-03-22T11:33:45;99419.78;;;9.90;93.57
77410;BME280;66481;51.332;22.804;2024-03-22T11:37:47;99422.09;;;10.06;94.59
77410;BME280;66481;51.332;22.804;2024-03-22T11:41:48;99440.31;;;10.44;94.94
77410;BME280;66481;51.332;22.804;2024-03-22T11:45:51;99440.78;;;11.06;93.59
77410;BME280;66481;51.332;22.804;2024-03-22T11:49:52;99419.78;;;11.25;90.17
77410;BME280;66481;51.332;22.804;2024-03-22T11:53:55;99399.56;;;11.24;87.47
77410;BME280;66481;51.332;22.804;2024-03-22T11:57:57;99396.50;;;10.97;86.38
77410;BME280;66481;51.332;22.804;2024-03-22T12:01:59;99379.59;;;10.77;86.18
77410;BME280;66481;51.332;22.804;2024-03-22T12:06:01;99390.16;;;10.65;86.77
77410;BME280;66481;51.332;22.804;2024-03-22T12:10:02;99396.41;;;10.76;87.21
77410;BME280;66481;51.332;22.804;2024-03-22T12:14:03;99389.41;;;10.97;86.20
77410;BME280;66481;51.332;22.804;2024-03-22T12:18:05;99376.50;;;11.04;85.07
77410;BME280;66481;51.332;22.804;2024-03-22T12:22:06;99370.53;;;10.79;84.79
77410;BME280;66481;51.332;22.804;2024-03-22T12:26:08;99374.72;;;10.93;83.66
77410;BME280;66481;51.332;22.804;2024-03-22T12:30:09;99359.56;;;10.95;83.47
77410;BME280;66481;51.332;22.804;2024-03-22T12:34:11;99354.00;;;10.66;83.58
77410;BME280;66481;51.332;22.804;2024-03-22T12:38:13;99358.91;;;10.48;83.89
77410;BME280;66481;51.332;22.804;2024-03-22T12:42:17;99368.94;;;10.33;84.79
77410;BME280;66481;51.332;22.804;2024-03-22T12:46:19;99351.91;;;10.24;85.43
77410;BME280;66481;51.332;22.804;2024-03-22T12:50:20;99367.44;;;10.29;85.97
77410;BME280;66481;51.332;22.804;2024-03-22T12:54:21;99359.38;;;10.08;86.39
77410;BME280;66481;51.332;22.804;2024-03-22T12:58:22;99352.38;;;10.07;86.38
77410;BME280;66481;51.332;22.804;2024-03-22T13:02:24;99348.78;;;9.96;86.95
77410;BME280;66481;51.332;22.804;2024-03-22T13:06:28;99350.25;;;10.23;86.93
77410;BME280;66481;51.332;22.804;2024-03-22T13:10:29;99347.50;;;10.47;86.53
77410;BME280;66481;51.332;22.804;2024-03-22T13:14:30;99343.13;;;10.69;86.30
77410;BME280;66481;51.332;22.804;2024-03-22T13:18:32;99328.59;;;10.63;86.30
77410;BME280;66481;51.332;22.804;2024-03-22T13:22:33;99314.19;;;10.56;86.32
77410;BME280;66481;51.332;22.804;2024-03-22T13:26:36;99329.59;;;10.51;86.38
77410;BME280;66481;51.332;22.804;2024-03-22T13:30:37;99331.72;;;10.57;87.13
77410;BME280;66481;51.332;22.804;2024-03-22T13:34:38;99325.78;;;10.76;86.59
77410;BME280;66481;51.332;22.804;2024-03-22T13:38:39;99329.06;;;10.80;87.12
77410;BME280;66481;51.332;22.804;2024-03-22T13:42:42;99317.16;;;10.74;86.96
77410;BME280;66481;51.332;22.804;2024-03-22T13:46:43;99312.78;;;10.84;86.56
77410;BME280;66481;51.332;22.804;2024-03-22T13:50:46;99302.19;;;10.84;86.76
77410;BME280;66481;51.332;22.804;2024-03-22T13:54:47;99298.63;;;10.74;86.95
77410;BME280;66481;51.332;22.804;2024-03-22T13:58:48;99280.75;;;10.55;86.95
77410;BME280;66481;51.332;22.804;2024-03-22T14:02:51;99287.50;;;10.59;88.05
77410;BME280;66481;51.332;22.804;2024-03-22T14:06:58;99287.69;;;10.67;87.63
77410;BME280;66481;51.332;22.804;2024-03-22T14:11:05;99282.09;;;10.38;88.23
77410;BME280;66481;51.332;22.804;2024-03-22T14:15:07;99281.84;;;10.52;89.25
77410;BME280;66481;51.332;22.804;2024-03-22T14:19:09;99280.41;;;10.48;89.46
77410;BME280;66481;51.332;22.804;2024-03-22T14:23:10;99274.28;;;10.48;89.60
77410;BME280;66481;51.332;22.804;2024-03-22T14:27:12;99278.81;;;10.57;90.17
77410;BME280;66481;51.332;22.804;2024-03-22T14:31:14;99271.16;;;10.54;90.05
77410;BME280;66481;51.332;22.804;2024-03-22T14:35:16;99273.16;;;10.62;90.29
77410;BME280;66481;51.332;22.804;2024-03-22T14:39:18;99271.09;;;10.65;89.89
77410;BME280;66481;51.332;22.804;2024-03-22T14:43:19;99268.91;;;10.70;89.98
77410;BME280;66481;51.332;22.804;2024-03-22T14:47:21;99267.03;;;10.61;89.82
77410;BME280;66481;51.332;22.804;2024-03-22T14:51:24;99264.97;;;10.65;90.04
77410;BME280;66481;51.332;22.804;2024-03-22T14:55:25;99252.88;;;10.40;89.71
77410;BME280;66481;51.332;22.804;2024-03-22T14:59:28;99249.75;;;10.34;90.37
77410;BME280;66481;51.332;22.804;2024-03-22T15:03:30;99246.16;;;10.35;90.02
77410;BME280;66481;51.332;22.804;2024-03-22T15:07:31;99251.34;;;10.37;89.53
77410;BME280;66481;51.332;22.804;2024-03-22T15:11:33;99244.75;;;10.31;89.76
77410;BME280;66481;51.332;22.804;2024-03-22T15:15:38;99248.22;;;10.32;90.30
77410;BME280;66481;51.332;22.804;2024-03-22T15:19:39;99238.22;;;10.35;90.33
77410;BME280;66481;51.332;22.804;2024-03-22T15:23:43;99237.84;;;10.29;90.21
77410;BME280;66481;51.332;22.804;2024-03-22T15:27:45;99235.84;;;10.21;90.29
77410;BME280;66481;51.332;22.804;2024-03-22T15:31:46;99233.66;;;10.15;90.63
77410;BME280;66481;51.332;22.804;2024-03-22T15:35:48;99234.38;;;10.17;90.84
77410;BME280;66481;51.332;22.804;2024-03-22T15:39:52;99232.00;;;10.14;91.08
77410;BME280;66481;51.332;22.804;2024-03-22T15:43:53;99225.16;;;10.00;90.94
77410;BME280;66481;51.332;22.804;2024-03-22T15:47:56;99219.25;;;9.96;91.70
77410;BME280;66481;51.332;22.804;2024-03-22T15:51:57;99219.41;;;9.84;91.85
77410;BME280;66481;51.332;22.804;2024-03-22T15:55:58;99217.72;;;9.71;92.55
77410;BME280;66481;51.332;22.804;2024-03-22T16:00:00;99215.56;;;9.65;92.14
77410;BME280;66481;51.332;22.804;2024-03-22T16:04:02;99215.81;;;9.62;92.89
77410;BME280;66481;51.332;22.804;2024-03-22T16:08:04;99206.06;;;9.51;93.26
77410;BME280;66481;51.332;22.804;2024-03-22T16:12:07;99215.31;;;9.46;93.48
77410;BME280;66481;51.332;22.804;2024-03-22T16:16:08;99223.34;;;9.44;92.89
77410;BME280;66481;51.332;22.804;2024-03-22T16:20:10;99219.16;;;9.41;93.39
77410;BME280;66481;51.332;22.804;2024-03-22T16:24:11;99215.66;;;9.30;93.14
77410;BME280;66481;51.332;22.804;2024-03-22T16:28:13;99206.97;;;9.16;93.96
77410;BME280;66481;51.332;22.804;2024-03-22T16:32:16;99218.84;;;9.11;94.87
77410;BME280;66481;51.332;22.804;2024-03-22T16:36:21;99212.69;;;8.99;94.83
77410;BME280;66481;51.332;22.804;2024-03-22T16:40:23;99204.06;;;8.97;95.17
77410;BME280;66481;51.332;22.804;2024-03-22T16:44:25;99215.06;;;8.91;96.12
77410;BME280;66481;51.332;22.804;2024-03-22T16:48:27;99211.91;;;8.85;96.65
77410;BME280;66481;51.332;22.804;2024-03-22T16:52:29;99210.81;;;8.77;95.97
77410;BME280;66481;51.332;22.804;2024-03-22T16:56:34;99205.28;;;8.69;97.09
77410;BME280;66481;51.332;22.804;2024-03-22T17:00:37;99214.47;;;8.63;97.92
77410;BME280;66481;51.332;22.804;2024-03-22T17:04:39;99200.78;;;8.58;97.74
77410;BME280;66481;51.332;22.804;2024-03-22T17:08:40;99206.31;;;8.55;98.37
77410;BME280;66481;51.332;22.804;2024-03-22T17:12:41;99200.28;;;8.53;98.89
77410;BME280;66481;51.332;22.804;2024-03-22T17:16:43;99200.84;;;8.45;99.48
77410;BME280;66481;51.332;22.804;2024-03-22T17:20:44;99215.09;;;8.42;99.55
77410;BME280;66481;51.332;22.804;2024-03-22T17:24:46;99203.16;;;8.37;100.00
77410;BME280;66481;51.332;22.804;2024-03-22T17:28:48;99202.44;;;8.35;100.00
77410;BME280;66481;51.332;22.804;2024-03-22T17:32:50;99199.91;;;8.33;100.00
77410;BME280;66481;51.332;22.804;2024-03-22T17:36:58;99202.22;;;8.38;100.00
77410;BME280;66481;51.332;22.804;2024-03-22T17:41:00;99202.66;;;8.32;100.00
77410;BME280;66481;51.332;22.804;2024-03-22T17:45:02;99195.25;;;8.37;100.00
77410;BME280;66481;51.332;22.804;2024-03-22T17:49:05;99196.34;;;8.34;100.00
77410;BME280;66481;51.332;22.804;2024-03-22T17:53:07;99205.31;;;8.32;100.00
77410;BME280;66481;51.332;22.804;2024-03-22T17:57:08;99190.16;;;8.22;100.00
77410;BME280;66481;51.332;22.804;2024-03-22T18:01:12;99200.50;;;8.25;100.00
77410;BME280;66481;51.332;22.804;2024-03-22T18:05:13;99197.56;;;8.17;100.00
77410;BME280;66481;51.332;22.804;2024-03-22T18:09:15;99206.63;;;8.13;100.00
77410;BME280;66481;51.332;22.804;2024-03-22T18:13:17;99205.06;;;8.10;100.00
77410;BME280;66481;51.332;22.804;2024-03-22T18:17:21;99204.66;;;8.04;100.00
77410;BME280;66481;51.332;22.804;2024-03-22T18:21:24;99199.94;;;7.96;100.00
77410;BME280;66481;51.332;22.804;2024-03-22T18:25:25;99200.06;;;7.95;100.00
77410;BME280;66481;51.332;22.804;2024-03-22T18:29:27;99202.06;;;7.91;100.00
77410;BME280;66481;51.332;22.804;2024-03-22T18:33:28;99201.44;;;7.87;100.00
77410;BME280;66481;51.332;22.804;2024-03-22T18:37:36;99192.91;;;7.84;100.00
77410;BME280;66481;51.332;22.804;2024-03-22T18:41:38;99187.66;;;7.84;100.00
77410;BME280;66481;51.332;22.804;2024-03-22T18:45:40;99180.91;;;7.80;100.00
77410;BME280;66481;51.332;22.804;2024-03-22T18:49:41;99187.97;;;7.79;100.00
77410;BME280;66481;51.332;22.804;2024-03-22T18:53:43;99194.06;;;7.80;100.00
77410;BME280;66481;51.332;22.804;2024-03-22T18:57:47;99185.03;;;7.71;100.00
77410;BME280;66481;51.332;22.804;2024-03-22T19:01:50;99187.56;;;7.72;100.00
77410;BME280;66481;51.332;22.804;2024-03-22T19:05:52;99197.25;;;7.72;100.00
77410;BME280;66481;51.332;22.804;2024-03-22T19:09:53;99176.91;;;7.74;100.00
77410;BME280;66481;51.332;22.804;2024-03-22T19:13:57;99176.09;;;7.74;100.00
77410;BME280;66481;51.332;22.804;2024-03-22T19:17:59;99171.44;;;7.77;100.00
77410;BME280;66481;51.332;22.804;2024-03-22T19:22:03;99160.97;;;7.88;100.00
77410;BME280;66481;51.332;22.804;2024-03-22T19:26:04;99147.38;;;7.95;100.00
77410;BME280;66481;51.332;22.804;2024-03-22T19:30:07;99149.66;;;7.99;100.00
77410;BME280;66481;51.332;22.804;2024-03-22T19:34:10;99150.41;;;8.01;100.00
77410;BME280;66481;51.332;22.804;2024-03-22T19:38:14;99137.13;;;8.03;100.00
77410;BME280;66481;51.332;22.804;2024-03-22T19:42:17;99120.56;;;8.01;100.00
77410;BME280;66481;51.332;22.804;2024-03-22T19:46:22;99120.22;;;8.05;100.00
77410;BME280;66481;51.332;22.804;2024-03-22T19:50:26;99105.03;;;8.09;100.00
77410;BME280;66481;51.332;22.804;2024-03-22T19:54:28;99109.97;;;8.14;100.00
77410;BME280;66481;51.332;22.804;2024-03-22T19:58:30;99098.31;;;8.05;100.00
77410;BME280;66481;51.332;22.804;2024-03-22T20:02:38;99092.16;;;8.17;100.00
77410;BME280;66481;51.332;22.804;2024-03-22T20:06:39;99085.78;;;8.20;100.00
77410;BME280;66481;51.332;22.804;2024-03-22T20:10:41;99085.78;;;8.20;100.00
77410;BME280;66481;51.332;22.804;2024-03-22T20:14:43;99076.34;;;8.17;100.00
77410;BME280;66481;51.332;22.804;2024-03-22T20:18:44;99067.34;;;8.20;100.00
77410;BME280;66481;51.332;22.804;2024-03-22T20:22:46;99056.56;;;8.12;100.00
77410;BME280;66481;51.332;22.804;2024-03-22T20:26:49;99052.00;;;8.14;100.00
77410;BME280;66481;51.332;22.804;2024-03-22T20:30:53;99049.97;;;8.17;100.00
77410;BME280;66481;51.332;22.804;2024-03-22T20:34:57;99054.41;;;8.17;100.00
